Time;durP1;ratioP1;P1;durP2;ratioP2;P2;SDS_P1;SDS_P2;PMS_P1;PMS_P2;Temp;Humidity;BMP_temperature;BMP_pressure;BME280_temperature;BME280_humidity;BME280_pressure;Samples;Min_cycle;Max_cycle;Signal;HPM_P1;HPM_P2
2021/03/30 00:01:15;;;;;;;14.83;9.57;;;;;;;-144.99;94.60;52362.50;5078279;28;20208;-75
2021/03/30 00:03:41;;;;;;;17.80;10.80;;;;;;;-144.99;95.01;52342.09;5081657;28;20212;-74
2021/03/30 00:06:07;;;;;;;19.13;10.80;;;;;;;-144.99;95.44;52386.94;5086993;28;20200;-76
2021/03/30 00:08:33;;;;;;;27.33;12.30;;;;;;;-144.99;95.70;52338.03;5082233;28;20216;-74
2021/03/30 00:11:01;;;;;;;25.93;10.37;;;;;;;-144.99;95.81;52358.41;5084142;28;20643;-75
2021/03/30 00:13:27;;;;;;;22.87;10.67;;;;;;;-144.99;96.31;52346.19;5075533;28;20420;-75
2021/03/30 00:15:53;;;;;;;22.40;11.47;;;;;;;-144.99;96.89;52370.63;5082839;28;20227;-74
2021/03/30 00:18:19;;;;;;;18.90;11.13;;;;;;;-144.99;97.44;52391.03;5076863;28;20225;-74
2021/03/30 00:20:46;;;;;;;19.90;10.80;;;;;;;-144.99;97.63;52372.69;5079608;28;20527;-74
2021/03/30 00:23:12;;;;;;;24.37;14.03;;;;;;;-144.99;98.11;52384.91;5076277;28;20204;-75
2021/03/30 00:25:38;;;;;;;22.03;13.47;;;;;;;-144.99;98.42;52342.09;5087932;28;20196;-74
2021/03/30 00:28:05;;;;;;;35.00;15.83;;;;;;;-144.99;98.50;52362.50;5087902;28;20240;-75
2021/03/30 00:30:31;;;;;;;21.67;13.47;;;;;;;-144.99;98.54;52362.50;5079731;28;20232;-74
2021/03/30 00:32:57;;;;;;;24.77;13.03;;;;;;;-144.99;98.72;52350.25;5069348;28;20204;-75
2021/03/30 00:35:23;;;;;;;21.47;12.53;;;;;;;-144.99;98.56;52301.34;5079087;28;20611;-76
2021/03/30 00:37:50;;;;;;;25.33;13.37;;;;;;;-144.99;98.32;52366.56;5074806;28;20224;-74
2021/03/30 00:40:17;;;;;;;23.00;12.77;;;;;;;-144.99;98.11;52358.41;5077523;28;20835;-74
2021/03/30 00:42:43;;;;;;;21.83;11.53;;;;;;;-144.99;97.61;52338.03;5078133;28;20213;-75
2021/03/30 00:45:12;;;;;;;20.30;11.23;;;;;;;-144.99;96.74;52384.91;5076539;28;20201;-73
2021/03/30 00:47:42;;;;;;;24.13;10.33;;;;;;;-144.99;96.05;52350.25;5081010;28;20220;-73
2021/03/30 00:50:12;;;;;;;24.40;10.40;;;;;;;-144.99;95.65;52321.72;5082052;28;20212;-76
2021/03/30 00:52:41;;;;;;;12.70;8.87;;;;;;;-144.99;95.26;52403.25;5084855;28;20201;-75
2021/03/30 00:55:08;;;;;;;15.93;10.70;;;;;;;-144.99;94.66;52366.56;5084698;28;20359;-74
2021/03/30 00:57:35;;;;;;;26.33;14.17;;;;;;;-144.99;94.32;52350.25;5076032;28;20220;-74
2021/03/30 01:00:01;;;;;;;24.57;11.20;;;;;;;-144.99;93.65;52344.16;5083757;28;20215;-75
2021/03/30 01:02:29;;;;;;;18.00;8.93;;;;;;;-144.99;93.43;52374.72;5074790;28;20216;-75
2021/03/30 01:04:54;;;;;;;18.00;9.53;;;;;;;-144.99;92.75;52378.78;5075203;28;20191;-73
2021/03/30 01:07:21;;;;;;;17.33;10.77;;;;;;;-144.99;92.84;52374.72;5077376;28;20224;-75
2021/03/30 01:09:57;;;;;;;19.50;11.40;;;;;;;-144.99;92.91;52391.03;5075388;28;20221;-75
2021/03/30 01:12:37;;;;;;;12.60;9.03;;;;;;;-144.99;92.79;52427.72;5069264;28;20192;-77
2021/03/30 01:15:17;;;;;;;18.40;9.30;;;;;;;-144.99;92.66;52378.78;5073585;28;20685;-75
2021/03/30 01:17:53;;;;;;;14.97;9.07;;;;;;;-144.99;92.41;52395.09;5068264;28;20300;-75
2021/03/30 01:20:52;;;;;;;19.47;7.77;;;;;;;-144.99;91.76;52407.31;5079640;28;20196;-76
2021/03/30 01:23:55;;;;;;;15.53;7.53;;;;;;;-144.99;91.47;52378.78;5075255;28;20197;-75
2021/03/30 01:26:39;;;;;;;15.13;7.27;;;;;;;-144.99;91.37;52427.72;5070372;28;20212;-75
2021/03/30 01:29:38;;;;;;;26.37;13.27;;;;;;;-144.99;91.26;52374.72;5075827;28;20227;-75
2021/03/30 01:32:09;;;;;;;16.97;7.53;;;;;;;-144.99;91.19;52388.97;5056298;28;20671;-75
2021/03/30 01:34:38;;;;;;;17.33;7.27;;;;;;;-144.99;90.88;52333.94;5087863;28;20277;-75
2021/03/30 01:37:04;;;;;;;10.97;7.67;;;;;;;-144.99;90.70;52374.72;5081736;28;20204;-73
2021/03/30 01:39:31;;;;;;;11.87;8.77;;;;;;;-144.99;90.43;52397.13;5078334;28;20725;-75
2021/03/30 01:41:58;;;;;;;11.77;7.67;;;;;;;-144.99;90.39;52362.50;5078190;28;20200;-73
2021/03/30 01:44:26;;;;;;;23.07;8.03;;;;;;;-144.99;90.29;52368.59;5080627;28;20294;-76
2021/03/30 01:46:54;;;;;;;13.37;8.37;;;;;;;-144.99;90.33;52325.81;5080982;28;20196;-76
2021/03/30 01:49:22;;;;;;;13.67;7.47;;;;;;;-144.99;90.07;52378.78;5078771;28;20608;-75
2021/03/30 01:51:50;;;;;;;12.60;6.33;;;;;;;-144.99;89.62;52358.41;5082935;28;20189;-75
2021/03/30 01:54:18;;;;;;;11.53;7.57;;;;;;;-144.99;89.37;52395.09;5079750;28;20201;-75
2021/03/30 01:56:45;;;;;;;13.10;7.80;;;;;;;-144.99;89.50;52354.34;5081689;28;20196;-74
2021/03/30 01:59:14;;;;;;;26.60;9.70;;;;;;;-144.99;89.37;52378.78;5077481;28;20675;-75
2021/03/30 02:01:42;;;;;;;14.20;6.60;;;;;;;-144.99;89.04;52358.41;5088581;28;20216;-74
2021/03/30 02:04:09;;;;;;;24.73;10.33;;;;;;;-144.99;89.03;52370.63;5073214;28;20207;-74
2021/03/30 02:06:38;;;;;;;18.43;10.60;;;;;;;-144.99;88.77;52360.44;5073106;28;20205;-75
2021/03/30 02:09:09;;;;;;;18.23;8.27;;;;;;;-144.99;88.71;52346.19;5072939;28;20290;-74
2021/03/30 02:11:40;;;;;;;14.97;7.73;;;;;;;-144.99;88.68;52329.88;5082197;28;20220;-77
2021/03/30 02:14:06;;;;;;;11.80;6.80;;;;;;;-144.99;88.49;52366.56;5072772;28;20192;-74
2021/03/30 02:16:39;;;;;;;14.80;7.40;;;;;;;-144.99;88.42;52366.56;5073267;28;20315;-75
2021/03/30 02:19:11;;;;;;;18.67;8.33;;;;;;;-144.99;88.31;52358.41;5072909;28;20213;-74
2021/03/30 02:21:44;;;;;;;16.53;7.33;;;;;;;-144.99;88.15;52374.72;5082853;28;20212;-75
2021/03/30 02:24:12;;;;;;;14.20;7.50;;;;;;;-144.99;88.18;52388.97;5079705;28;20192;-76
2021/03/30 02:26:41;;;;;;;11.83;9.30;;;;;;;-144.99;88.04;52391.03;5078377;28;20204;-77
2021/03/30 02:29:10;;;;;;;12.43;6.97;;;;;;;-144.99;87.88;52342.09;5083651;28;20216;-76
2021/03/30 02:31:39;;;;;;;17.63;8.47;;;;;;;-144.99;87.81;52382.88;5073364;28;20241;-76
2021/03/30 02:34:07;;;;;;;14.97;6.30;;;;;;;-144.99;87.58;52366.56;5081277;28;20206;-76
2021/03/30 02:36:34;;;;;;;14.23;6.80;;;;;;;-144.99;87.51;52370.63;5075924;28;20578;-74
2021/03/30 02:39:06;;;;;;;17.70;7.00;;;;;;;-144.99;87.13;52366.56;5078204;28;20277;-76
2021/03/30 02:41:35;;;;;;;14.53;7.07;;;;;;;-144.99;87.11;52391.03;5076351;28;20693;-75
2021/03/30 02:44:02;;;;;;;18.63;7.07;;;;;;;-144.99;87.00;52368.59;5080772;28;20279;-76
2021/03/30 02:46:29;;;;;;;9.77;6.87;;;;;;;-144.99;86.88;52370.63;5080767;28;20204;-77
2021/03/30 02:48:56;;;;;;;12.30;6.03;;;;;;;-144.99;86.55;52350.25;5076544;28;20228;-75
2021/03/30 02:51:23;;;;;;;18.77;5.97;;;;;;;-144.99;86.51;52374.72;5085761;28;20672;-76
2021/03/30 02:53:49;;;;;;;17.83;7.03;;;;;;;-144.99;85.91;52401.22;5071536;28;20184;-76
2021/03/30 02:56:16;;;;;;;17.40;6.80;;;;;;;-144.99;85.56;52327.84;5076898;28;20616;-75
2021/03/30 02:58:43;;;;;;;14.17;7.47;;;;;;;-144.99;85.24;52388.97;5075311;28;20232;-76
2021/03/30 03:01:11;;;;;;;20.50;7.13;;;;;;;-144.99;85.28;52391.03;5074905;28;20201;-75
2021/03/30 03:03:39;;;;;;;11.67;5.93;;;;;;;-144.99;84.89;52380.84;5076432;28;20201;-75
2021/03/30 03:06:06;;;;;;;13.63;6.60;;;;;;;-144.99;84.82;52382.88;5084039;28;20240;-75
2021/03/30 03:08:32;;;;;;;16.63;6.30;;;;;;;-144.99;84.96;52399.19;5078581;28;20213;-75
2021/03/30 03:10:59;;;;;;;12.73;7.43;;;;;;;-144.99;84.76;52399.19;5080431;28;20197;-75
2021/03/30 03:13:27;;;;;;;11.53;5.87;;;;;;;-144.99;84.86;52346.19;5079188;28;20228;-74
2021/03/30 03:15:54;;;;;;;17.17;7.30;;;;;;;-144.99;84.74;52344.16;5082959;28;20562;-75
2021/03/30 03:18:20;;;;;;;12.03;6.10;;;;;;;-144.99;84.82;52427.72;5076730;28;20212;-74
2021/03/30 03:20:47;;;;;;;18.97;7.43;;;;;;;-144.99;84.75;52366.56;5087413;28;20204;-76
2021/03/30 03:23:13;;;;;;;18.10;6.17;;;;;;;-144.99;84.70;52319.69;5080185;28;20212;-75
2021/03/30 03:25:40;;;;;;;12.70;5.77;;;;;;;-144.99;84.58;52382.88;5082402;28;20225;-76
2021/03/30 03:28:06;;;;;;;11.77;6.10;;;;;;;-144.99;84.48;52386.94;5083760;28;20725;-76
2021/03/30 03:30:33;;;;;;;11.80;6.13;;;;;;;-144.99;84.35;52366.56;5089256;28;20220;-76
2021/03/30 03:33:05;;;;;;;20.23;7.03;;;;;;;-144.99;84.40;52382.88;5096717;28;20189;-75
2021/03/30 03:35:31;;;;;;;10.63;6.07;;;;;;;-144.99;84.42;52382.88;5106125;28;20216;-75
2021/03/30 03:37:57;;;;;;;8.37;5.53;;;;;;;-144.99;84.40;52397.13;5095641;28;20238;-75
2021/03/30 03:40:23;;;;;;;14.87;6.17;;;;;;;-144.99;84.49;52366.56;5094774;28;20216;-76
2021/03/30 03:42:49;;;;;;;10.30;5.33;;;;;;;-144.99;84.45;52450.13;5120134;22;20228;-78
2021/03/30 03:45:15;;;;;;;42.40;11.93;;;;;;;-144.99;84.39;52395.09;5077092;28;20223;-78
2021/03/30 03:47:43;;;;;;;13.03;6.07;;;;;;;-144.99;84.42;52350.25;5086583;28;20498;-79
2021/03/30 03:50:11;;;;;;;17.40;7.97;;;;;;;-144.99;84.17;52374.72;5087955;28;20219;-79
2021/03/30 03:52:41;;;;;;;21.60;7.00;;;;;;;-144.99;84.11;52370.63;5085084;28;20223;-80
2021/03/30 03:55:11;;;;;;;11.00;6.57;;;;;;;-144.99;84.04;52374.72;5077480;28;20651;-79
2021/03/30 03:57:45;;;;;;;18.23;6.50;;;;;;;-144.99;84.31;52372.69;5076474;28;20211;-79
2021/03/30 04:00:11;;;;;;;17.50;6.40;;;;;;;-144.99;84.26;52352.28;5084740;28;20188;-80
2021/03/30 04:02:44;;;;;;;12.63;6.53;;;;;;;-144.99;84.22;52370.63;5086212;28;20226;-81
2021/03/30 04:05:14;;;;;;;10.73;6.27;;;;;;;-144.99;84.15;52429.75;5086066;28;20716;-82
2021/03/30 04:07:46;;;;;;;15.83;5.10;;;;;;;-144.99;84.01;52325.81;5081394;28;20200;-80
2021/03/30 04:10:16;;;;;;;15.73;6.60;;;;;;;-144.99;83.98;52354.34;5085247;28;20276;-78
2021/03/30 04:12:43;;;;;;;20.63;6.23;;;;;;;-144.99;83.94;52391.03;5082224;28;20228;-80
2021/03/30 04:15:10;;;;;;;12.63;6.10;;;;;;;-144.99;83.75;52395.09;5089055;28;20204;-80
2021/03/30 04:17:36;;;;;;;9.23;4.83;;;;;;;-144.99;83.71;52382.88;5084802;28;20218;-80
2021/03/30 04:20:09;;;;;;;15.87;6.17;;;;;;;-144.99;83.76;52325.81;5086484;28;20211;-80
2021/03/30 04:22:35;;;;;;;16.77;10.33;;;;;;;-144.99;83.52;52368.59;5091047;28;20742;-79
2021/03/30 04:25:01;;;;;;;12.97;7.90;;;;;;;-144.99;83.51;52386.94;5083943;28;20227;-81
2021/03/30 04:27:27;;;;;;;16.27;5.90;;;;;;;-144.99;83.50;52338.03;5088233;28;20654;-80
2021/03/30 04:29:53;;;;;;;11.57;5.50;;;;;;;-144.99;83.41;52374.72;5084232;28;20217;-80
2021/03/30 04:32:19;;;;;;;12.77;6.93;;;;;;;-144.99;83.51;52407.31;5086782;28;20199;-77
2021/03/30 04:34:45;;;;;;;14.50;8.47;;;;;;;-144.99;83.36;52391.03;5085409;28;21509;-76
2021/03/30 04:37:11;;;;;;;13.87;6.20;;;;;;;-144.99;83.18;52354.34;5082680;28;20706;-76
2021/03/30 04:39:37;;;;;;;16.80;6.93;;;;;;;-144.99;83.11;52370.63;5082762;28;20416;-76
2021/03/30 04:42:04;;;;;;;13.57;6.87;;;;;;;-144.99;83.08;52380.84;5085279;28;20571;-76
2021/03/30 04:44:30;;;;;;;17.57;6.87;;;;;;;-144.99;83.06;52423.63;5083135;28;20290;-76
2021/03/30 04:46:58;;;;;;;15.67;6.97;;;;;;;-144.99;82.85;52356.38;5086880;28;20666;-75
2021/03/30 04:49:24;;;;;;;16.40;8.93;;;;;;;-144.99;82.76;52378.78;5085121;28;20524;-76
2021/03/30 04:51:50;;;;;;;16.60;7.57;;;;;;;-144.99;82.85;52378.78;5083982;28;20206;-77
2021/03/30 04:54:16;;;;;;;17.00;8.93;;;;;;;-144.99;82.93;52399.19;5088026;28;20665;-76
2021/03/30 04:56:42;;;;;;;11.50;5.23;;;;;;;-144.99;83.11;52391.03;5082617;28;20261;-77
2021/03/30 04:59:09;;;;;;;11.13;5.43;;;;;;;-144.99;83.07;52382.88;5085317;28;20197;-76
2021/03/30 05:01:35;;;;;;;11.10;5.87;;;;;;;-144.99;82.90;52391.03;5081963;28;20574;-77
2021/03/30 05:04:01;;;;;;;19.10;9.97;;;;;;;-144.99;82.97;52364.53;5087568;28;20779;-76
2021/03/30 05:06:27;;;;;;;13.10;6.03;;;;;;;-144.99;83.02;52421.59;5081378;28;20205;-78
2021/03/30 05:08:53;;;;;;;17.63;9.43;;;;;;;-144.99;83.13;52358.41;5085941;28;20231;-78
2021/03/30 05:11:19;;;;;;;11.27;7.50;;;;;;;-144.99;82.94;52338.03;5085558;28;20200;-80
2021/03/30 05:13:45;;;;;;;17.17;6.57;;;;;;;-144.99;82.88;52395.09;5084156;28;20231;-76
2021/03/30 05:16:11;;;;;;;15.50;10.47;;;;;;;-144.99;82.83;52370.63;5086997;28;20197;-77
2021/03/30 05:18:38;;;;;;;11.50;4.93;;;;;;;-144.99;82.79;52354.34;5083880;28;20196;-77
2021/03/30 05:21:05;;;;;;;13.10;6.33;;;;;;;-144.99;82.67;52366.56;5088984;28;20193;-76
2021/03/30 05:23:31;;;;;;;16.50;6.37;;;;;;;-144.99;82.46;52354.34;5090207;28;20700;-76
2021/03/30 05:25:57;;;;;;;14.57;6.57;;;;;;;-144.99;82.32;52382.88;5084212;28;20195;-78
2021/03/30 05:28:23;;;;;;;13.40;6.07;;;;;;;-144.99;82.23;52366.56;5093188;28;20650;-79
2021/03/30 05:30:49;;;;;;;12.60;6.87;;;;;;;-144.99;82.18;52346.19;5085032;28;20631;-80
2021/03/30 05:33:15;;;;;;;9.47;6.50;;;;;;;-144.99;82.03;52386.94;5091572;28;20220;-80
2021/03/30 05:35:41;;;;;;;9.17;6.20;;;;;;;-144.99;82.02;52397.13;5095787;28;20583;-81
2021/03/30 05:38:07;;;;;;;12.10;6.07;;;;;;;-144.99;81.88;52317.66;5097682;28;20254;-80
2021/03/30 05:40:34;;;;;;;14.30;6.60;;;;;;;-144.99;81.68;52378.78;5099845;28;20292;-81
2021/03/30 05:43:00;;;;;;;11.90;7.63;;;;;;;-144.99;81.60;52395.09;5106402;28;20204;-82
2021/03/30 05:45:27;;;;;;;21.67;9.03;;;;;;;-144.99;81.44;52338.03;5095407;28;20256;-79
2021/03/30 05:47:54;;;;;;;18.43;9.27;;;;;;;-144.99;81.21;52329.88;5087852;28;20200;-78
2021/03/30 05:50:22;;;;;;;15.00;7.73;;;;;;;-144.99;81.00;52346.19;5091118;28;20220;-77
2021/03/30 05:52:52;;;;;;;16.07;7.93;;;;;;;-144.99;81.04;52354.34;5085398;28;20224;-77
2021/03/30 05:55:24;;;;;;;14.73;8.87;;;;;;;-144.99;80.73;52338.03;5089904;28;20211;-78
2021/03/30 05:57:52;;;;;;;15.37;7.83;;;;;;;-144.99;80.71;52342.09;5087831;28;20224;-78
2021/03/30 06:00:21;;;;;;;18.23;8.37;;;;;;;-144.99;80.44;52382.88;5079543;28;20196;-77
2021/03/30 06:02:50;;;;;;;14.33;7.90;;;;;;;-144.99;80.11;52366.56;5081498;28;20212;-79
2021/03/30 06:05:17;;;;;;;15.30;7.67;;;;;;;-144.99;79.62;52350.25;5082947;28;20993;-78
2021/03/30 06:07:44;;;;;;;23.30;9.43;;;;;;;-144.99;79.87;52362.50;5085973;28;20220;-78
2021/03/30 06:10:13;;;;;;;16.27;7.67;;;;;;;-144.99;79.85;52376.75;5093460;28;20215;-80
2021/03/30 06:12:39;;;;;;;16.20;10.30;;;;;;;-144.99;79.73;52350.25;5089296;28;20799;-82
2021/03/30 06:15:07;;;;;;;17.00;8.10;;;;;;;-144.99;79.60;52346.19;5090177;28;20196;-81
2021/03/30 06:17:40;;;;;;;18.20;9.33;;;;;;;-144.99;79.46;52346.19;5088626;28;20248;-79
2021/03/30 06:20:09;;;;;;;14.17;10.27;;;;;;;-144.99;79.16;52342.09;5091091;28;20192;-78
2021/03/30 06:22:46;;;;;;;15.63;9.30;;;;;;;-144.99;79.05;52325.81;5088784;28;20631;-78
2021/03/30 06:25:13;;;;;;;13.17;7.80;;;;;;;-144.99;79.32;52378.78;5082464;28;20197;-78
2021/03/30 06:27:39;;;;;;;13.90;9.13;;;;;;;-144.99;79.02;52350.25;5084938;28;20208;-77
2021/03/30 06:30:08;;;;;;;21.73;9.07;;;;;;;-144.99;78.38;52338.03;5086423;28;20285;-77
2021/03/30 06:32:36;;;;;;;20.10;8.63;;;;;;;-144.99;77.83;52329.88;5090802;28;20220;-77
2021/03/30 06:35:14;;;;;;;28.63;10.67;;;;;;;-144.99;77.80;52325.81;5085389;28;20207;-79
2021/03/30 06:37:42;;;;;;;15.27;8.83;;;;;;;-144.99;77.62;52354.34;5089244;28;20207;-78
2021/03/30 06:40:18;;;;;;;13.47;9.20;;;;;;;-144.99;77.33;52333.94;5088735;28;20197;-78
2021/03/30 06:42:47;;;;;;;14.67;7.70;;;;;;;-144.99;76.40;52366.56;5084666;28;20299;-79
2021/03/30 06:45:15;;;;;;;12.47;9.63;;;;;;;-144.99;76.10;52358.41;5086908;28;20220;-78
2021/03/30 06:47:42;;;;;;;14.30;8.97;;;;;;;-144.99;75.83;52342.09;5086980;28;20436;-79
2021/03/30 06:50:18;;;;;;;20.17;10.63;;;;;;;-144.99;75.57;52336.00;5085536;28;20217;-78
2021/03/30 06:52:45;;;;;;;18.50;9.33;;;;;;;-144.99;75.82;52264.66;5087679;28;20757;-79
2021/03/30 06:55:12;;;;;;;20.93;9.03;;;;;;;-144.99;75.16;52329.88;5086871;28;20601;-78
2021/03/30 06:57:41;;;;;;;17.10;8.70;;;;;;;-144.99;75.43;52354.34;5092160;28;20208;-78
2021/03/30 07:00:13;;;;;;;16.23;9.13;;;;;;;-144.99;75.30;52297.25;5086821;28;20215;-78
2021/03/30 07:02:41;;;;;;;14.53;8.77;;;;;;;-144.99;74.46;52315.59;5093301;28;20295;-79
2021/03/30 07:05:20;;;;;;;25.57;10.07;;;;;;;-144.99;74.64;52350.25;5099229;28;20215;-79
2021/03/30 07:07:51;;;;;;;16.70;9.57;;;;;;;-144.99;74.91;52342.09;5088394;28;20252;-79
2021/03/30 07:10:18;;;;;;;14.87;8.43;;;;;;;-144.99;73.84;52313.56;5084789;28;20314;-76
2021/03/30 07:12:46;;;;;;;15.83;9.83;;;;;;;-144.99;73.94;52321.72;5079403;28;20607;-76
2021/03/30 07:15:13;;;;;;;17.57;11.93;;;;;;;-144.99;73.77;52338.03;5089094;28;20249;-78
2021/03/30 07:17:42;;;;;;;20.57;10.70;;;;;;;-144.99;73.66;52327.84;5085094;28;20196;-78
2021/03/30 07:20:10;;;;;;;13.67;9.27;;;;;;;-144.99;73.69;52346.19;5082230;28;20196;-76
2021/03/30 07:22:41;;;;;;;17.37;9.57;;;;;;;-144.99;73.18;52364.53;5080485;28;20311;-76
2021/03/30 07:25:12;;;;;;;20.07;10.07;;;;;;;-144.99;73.00;52280.97;5082908;28;20192;-77
2021/03/30 07:27:44;;;;;;;14.33;7.90;;;;;;;-144.99;72.55;52276.88;5087265;28;20193;-75
2021/03/30 07:30:13;;;;;;;14.17;8.13;;;;;;;-144.99;71.46;52352.28;5089255;28;20219;-76
2021/03/30 07:32:47;;;;;;;16.80;9.07;;;;;;;-144.99;71.51;52305.41;5084155;28;20234;-77
2021/03/30 07:35:15;;;;;;;16.73;10.00;;;;;;;-144.99;71.62;52301.34;5085016;28;20201;-78
2021/03/30 07:37:48;;;;;;;14.80;9.80;;;;;;;-144.99;70.85;52295.22;5084789;28;20498;-76
2021/03/30 07:40:18;;;;;;;15.80;8.90;;;;;;;-144.99;70.64;52317.66;5081129;28;20204;-74
2021/03/30 07:42:46;;;;;;;19.17;11.20;;;;;;;-144.99;70.41;52305.41;5085693;28;20227;-76
2021/03/30 07:45:14;;;;;;;18.27;8.83;;;;;;;-144.99;70.48;52297.25;5082540;28;20196;-75
2021/03/30 07:47:43;;;;;;;15.90;8.17;;;;;;;-144.99;70.61;52313.56;5087055;28;20203;-76
2021/03/30 07:50:11;;;;;;;16.87;8.00;;;;;;;-144.99;70.58;52317.66;5084126;28;20213;-76
2021/03/30 07:52:41;;;;;;;15.27;10.10;;;;;;;-144.99;70.25;52333.94;5084784;28;20620;-76
2021/03/30 07:55:21;;;;;;;17.33;8.00;;;;;;;-144.99;70.09;52264.66;5085142;28;20228;-76
2021/03/30 07:57:59;;;;;;;11.70;7.17;;;;;;;-144.99;70.23;52301.34;5078310;28;20202;-77
2021/03/30 08:00:46;;;;;;;13.47;7.47;;;;;;;-144.99;70.66;52285.03;5090084;28;20206;-76
2021/03/30 08:03:15;;;;;;;17.63;9.53;;;;;;;-144.99;70.75;52309.50;5075938;28;20225;-76
2021/03/30 08:05:41;;;;;;;28.47;9.80;;;;;;;-144.99;71.32;52280.97;5089653;28;20236;-78
2021/03/30 08:08:20;;;;;;;16.27;7.77;;;;;;;-144.99;70.72;52285.03;5085081;28;20213;-77
2021/03/30 08:10:49;;;;;;;12.30;7.30;;;;;;;-144.99;70.01;52299.31;5082510;28;20216;-78
2021/03/30 08:13:26;;;;;;;12.50;7.87;;;;;;;-144.99;69.71;52307.47;5081413;28;20230;-77
2021/03/30 08:15:54;;;;;;;14.13;8.67;;;;;;;-144.99;68.63;52317.66;5077141;28;20463;-79
2021/03/30 08:18:23;;;;;;;14.67;8.20;;;;;;;-144.99;68.93;52252.44;5079455;28;20264;-78
2021/03/30 08:20:54;;;;;;;9.23;6.73;;;;;;;-144.99;67.73;52303.38;5086015;28;20196;-78
2021/03/30 08:23:21;;;;;;;23.17;8.67;;;;;;;-144.99;67.29;52258.53;5088567;28;20655;-78
2021/03/30 08:25:52;;;;;;;13.03;8.00;;;;;;;-144.99;66.98;52307.47;5089937;28;20192;-82
2021/03/30 08:28:55;;;;;;;13.13;7.53;;;;;;;-144.99;67.70;52252.44;5085888;28;20195;-80
2021/03/30 08:31:24;;;;;;;12.97;7.07;;;;;;;-144.99;67.86;52309.50;5080320;28;20219;-81
2021/03/30 08:33:51;;;;;;;13.33;6.70;;;;;;;-144.99;68.11;52285.03;5093316;28;20257;-79
2021/03/30 08:36:29;;;;;;;10.63;6.50;;;;;;;-144.99;68.10;52297.25;5091938;28;20233;-80
2021/03/30 08:38:59;;;;;;;14.17;8.13;;;;;;;-144.99;67.82;52276.88;5092087;28;20263;-80
2021/03/30 08:41:52;;;;;;;17.17;7.93;;;;;;;-144.99;67.18;52215.75;5092867;28;20404;-80
2021/03/30 08:44:20;;;;;;;13.40;7.70;;;;;;;-144.99;67.05;52307.47;5093053;28;20232;-80
2021/03/30 08:46:48;;;;;;;16.27;8.53;;;;;;;-144.99;67.20;52280.97;5090661;28;20204;-80
2021/03/30 08:49:35;;;;;;;11.53;7.47;;;;;;;-144.99;67.79;52278.91;5090594;28;20295;-79
2021/03/30 08:52:04;;;;;;;11.50;7.73;;;;;;;-144.99;67.84;52240.19;5090356;28;20191;-79
2021/03/30 08:54:32;;;;;;;14.03;7.50;;;;;;;-144.99;67.57;52293.19;5089098;28;20230;-80
2021/03/30 08:57:01;;;;;;;19.60;8.17;;;;;;;-144.99;66.44;52287.06;5090851;28;20195;-79
2021/03/30 08:59:29;;;;;;;13.90;7.70;;;;;;;-144.99;65.18;52270.78;5093541;28;20204;-81
2021/03/30 09:02:04;;;;;;;19.03;7.90;;;;;;;-144.99;63.71;52199.44;5087899;28;20210;-79
2021/03/30 09:04:36;;;;;;;18.93;7.83;;;;;;;-144.99;63.22;52232.03;5098249;28;20211;-79
2021/03/30 09:07:02;;;;;;;13.87;7.90;;;;;;;-144.99;63.04;52280.97;5094340;28;20841;-81
2021/03/30 09:09:36;;;;;;;16.30;8.40;;;;;;;-144.99;62.61;52240.19;5086772;28;20215;-81
2021/03/30 09:12:06;;;;;;;17.33;8.57;;;;;;;-144.99;63.30;52232.03;5090765;28;20200;-80
2021/03/30 09:14:33;;;;;;;12.50;7.67;;;;;;;-144.99;62.56;52250.38;5095390;28;20227;-80
2021/03/30 09:17:07;;;;;;;15.43;7.60;;;;;;;-144.99;62.65;52256.50;5094078;28;20250;-79
2021/03/30 09:19:40;;;;;;;9.87;6.13;;;;;;;-144.99;62.56;52244.28;5077729;28;20222;-82
2021/03/30 09:22:10;;;;;;;19.47;9.07;;;;;;;-144.99;61.93;52256.50;5097855;28;20200;-79
2021/03/30 09:24:53;;;;;;;17.87;8.83;;;;;;;-144.99;60.93;52199.44;5094332;28;20196;-80
2021/03/30 09:27:24;;;;;;;15.57;7.83;;;;;;;-144.99;60.69;52268.72;5094828;28;20207;-78
2021/03/30 09:29:53;;;;;;;15.67;7.73;;;;;;;-144.99;60.55;52227.97;5094041;28;20260;-80
2021/03/30 09:32:20;;;;;;;11.80;7.43;;;;;;;-144.99;59.46;52211.66;5090926;28;20215;-82
2021/03/30 09:34:46;;;;;;;14.90;8.17;;;;;;;-144.99;59.01;52215.75;5098844;28;20205;-81
2021/03/30 09:37:12;;;;;;;16.63;8.50;;;;;;;-144.99;58.34;52225.94;5095933;28;20265;-80
2021/03/30 09:39:39;;;;;;;14.83;8.47;;;;;;;-144.99;58.10;52193.31;5083411;28;20202;-81
2021/03/30 09:42:07;;;;;;;14.23;7.93;;;;;;;-144.99;56.82;52183.13;5090548;28;20202;-81
2021/03/30 09:44:42;;;;;;;12.77;7.00;;;;;;;-144.99;56.57;52221.84;5096959;28;20233;-81
2021/03/30 09:47:09;;;;;;;13.63;8.60;;;;;;;-144.99;56.13;52166.81;5100138;28;20214;-80
2021/03/30 09:49:36;;;;;;;9.63;7.23;;;;;;;-144.99;56.21;52154.59;5095114;28;20235;-79
2021/03/30 09:52:04;;;;;;;16.13;8.83;;;;;;;-144.99;56.05;52195.34;5088259;28;20668;-77
2021/03/30 09:54:31;;;;;;;11.13;6.83;;;;;;;-144.99;55.37;52179.06;5084623;28;20268;-81
2021/03/30 09:57:03;;;;;;;11.80;8.03;;;;;;;-144.99;54.19;52154.59;5083579;28;20210;-82
2021/03/30 09:59:30;;;;;;;14.90;8.43;;;;;;;-144.99;53.20;52121.97;5093297;28;20194;-82
2021/03/30 10:01:59;;;;;;;13.40;8.20;;;;;;;-144.99;52.13;52146.44;5096574;28;20677;-82
2021/03/30 10:04:26;;;;;;;14.80;7.90;;;;;;;-144.99;51.76;52183.13;5095733;28;20807;-80
2021/03/30 10:06:53;;;;;;;14.70;7.47;;;;;;;-144.99;52.39;52195.34;5114774;22;20234;-78
2021/03/30 10:09:19;;;;;;;10.53;8.00;;;;;;;-144.99;52.50;52174.97;5125121;27;20195;-76
2021/03/30 10:11:46;;;;;;;14.60;8.13;;;;;;;-144.99;53.21;52185.16;5125512;27;20227;-75
2021/03/30 10:14:16;;;;;;;12.53;6.67;;;;;;;-144.99;52.44;52146.44;5112569;28;20210;-75
2021/03/30 10:16:43;;;;;;;13.47;7.60;;;;;;;-144.99;51.21;52101.59;5102782;28;20724;-76
2021/03/30 10:19:11;;;;;;;11.33;7.10;;;;;;;-144.99;51.05;52142.38;5101481;28;20206;-76
2021/03/30 10:21:37;;;;;;;10.93;6.60;;;;;;;-144.99;50.95;52142.38;5093882;28;20245;-76
2021/03/30 10:24:11;;;;;;;11.33;6.90;;;;;;;-144.99;51.03;52115.88;5099757;28;20264;-76
2021/03/30 10:26:38;;;;;;;18.20;9.00;;;;;;;-144.99;51.43;52138.28;5106042;28;20255;-78
2021/03/30 10:29:06;;;;;;;10.07;7.83;;;;;;;-144.99;51.22;52154.59;5098695;28;20269;-77
2021/03/30 10:31:37;;;;;;;11.17;7.33;;;;;;;-144.99;50.93;52138.28;5097555;28;20562;-77
2021/03/30 10:34:22;;;;;;;14.37;7.77;;;;;;;-144.99;51.50;52134.22;5113633;28;20448;-73
2021/03/30 10:36:49;;;;;;;16.40;8.20;;;;;;;-144.99;50.83;52109.75;5097371;28;20697;-77
2021/03/30 10:39:15;;;;;;;13.50;8.50;;;;;;;-144.99;50.80;52105.69;5107909;28;20196;-75
2021/03/30 10:41:43;;;;;;;11.33;8.90;;;;;;;-144.99;49.85;52069.00;5111685;28;20285;-76
2021/03/30 10:44:10;;;;;;;14.87;8.20;;;;;;;-144.99;49.27;52052.69;5111900;28;20203;-76
2021/03/30 10:46:41;;;;;;;11.70;7.47;;;;;;;-144.99;48.84;52050.66;5111864;28;20243;-76
2021/03/30 10:49:07;;;;;;;7.10;6.20;;;;;;;-144.99;48.82;52069.00;5101317;28;20198;-75
2021/03/30 10:51:38;;;;;;;10.80;7.40;;;;;;;-144.99;48.80;52016.00;5110223;28;20299;-75
2021/03/30 10:54:06;;;;;;;15.63;6.17;;;;;;;-144.99;48.39;52046.56;5101087;28;20295;-78
2021/03/30 10:56:32;;;;;;;11.60;7.10;;;;;;;-144.99;47.84;52032.31;5105751;28;20213;-76
2021/03/30 10:58:59;;;;;;;9.60;6.60;;;;;;;-144.99;46.75;52003.78;5103089;28;20208;-75
2021/03/30 11:01:25;;;;;;;9.37;7.13;;;;;;;-144.99;46.58;51999.69;5111744;28;20270;-75
2021/03/30 11:03:51;;;;;;;9.30;6.73;;;;;;;-144.99;45.58;51983.41;5112065;28;20216;-75
2021/03/30 11:06:18;;;;;;;10.90;6.83;;;;;;;-144.99;45.45;51987.47;5111499;28;20538;-77
2021/03/30 11:08:45;;;;;;;11.53;6.33;;;;;;;-144.99;45.00;51979.31;5091508;28;20206;-79
2021/03/30 11:11:11;;;;;;;12.00;5.53;;;;;;;-144.99;44.33;51975.25;5104917;28;20665;-75
2021/03/30 11:13:37;;;;;;;8.50;5.80;;;;;;;-144.99;44.79;52003.78;5112322;28;20672;-77
2021/03/30 11:16:05;;;;;;;12.83;7.53;;;;;;;-144.99;44.53;51958.94;5111215;28;20235;-75
2021/03/30 11:18:31;;;;;;;13.10;6.90;;;;;;;-144.99;44.27;52003.78;5108506;28;20203;-76